createdAt,value
2022-12-19T00:01:50.235Z,10.30
2022-12-19T00:04:20.161Z,10.30
2022-12-19T00:06:47.499Z,10.30
2022-12-19T00:09:15.062Z,10.30
2022-12-19T00:11:42.788Z,10.30
2022-12-19T00:14:11.970Z,10.20
2022-12-19T00:16:39.402Z,10.30
2022-12-19T00:19:07.161Z,10.30
2022-12-19T00:21:35.605Z,10.30
2022-12-19T00:24:16.270Z,10.40
2022-12-19T00:26:49.441Z,10.40
2022-12-19T00:29:16.931Z,10.40
2022-12-19T00:31:44.979Z,10.40
2022-12-19T00:34:15.130Z,10.40
2022-12-19T00:36:42.932Z,10.30
2022-12-19T00:39:11.888Z,10.30
2022-12-19T00:41:41.869Z,10.30
2022-12-19T00:44:14.581Z,10.30
2022-12-19T00:46:42.538Z,10.30
2022-12-19T00:49:13.559Z,10.30
2022-12-19T00:51:40.942Z,10.30
2022-12-19T00:54:11.020Z,10.30
2022-12-19T00:56:39.241Z,10.30
2022-12-19T00:59:10.834Z,10.30
2022-12-19T01:01:41.642Z,10.20
2022-12-19T01:04:31.133Z,10.20
2022-12-19T01:07:02.181Z,10.30
2022-12-19T01:09:35.238Z,10.30
2022-12-19T01:12:24.408Z,10.20
2022-12-19T01:14:57.724Z,10.20
2022-12-19T01:17:37.026Z,10.20
2022-12-19T01:20:14.623Z,10.20
2022-12-19T01:22:41.919Z,10.20
2022-12-19T01:25:09.648Z,10.20
2022-12-19T01:27:39.900Z,10.10
2022-12-19T01:30:08.029Z,10.10
2022-12-19T01:32:36.458Z,10.10
2022-12-19T01:35:05.238Z,10.10
2022-12-19T01:37:32.588Z,10.20
2022-12-19T01:39:59.978Z,10.10
2022-12-19T01:42:34.490Z,10.10
2022-12-19T01:45:22.969Z,10.10
2022-12-19T01:48:16.419Z,10.10
2022-12-19T01:50:58.265Z,10.10
2022-12-19T01:53:48.931Z,10.00
2022-12-19T01:56:22.289Z,10.00
2022-12-19T01:58:56.082Z,10.10
2022-12-19T02:01:39.633Z,10.10
2022-12-19T02:04:14.000Z,10.10
2022-12-19T02:06:43.227Z,10.10
2022-12-19T02:09:11.840Z,10.10
2022-12-19T02:11:39.340Z,10.10
2022-12-19T02:14:06.891Z,10.10
2022-12-19T02:16:42.431Z,10.20
2022-12-19T02:19:18.302Z,10.20
2022-12-19T02:22:18.799Z,10.20
2022-12-19T02:25:00.163Z,10.20
2022-12-19T02:27:40.213Z,10.20
2022-12-19T02:30:18.527Z,10.20
2022-12-19T02:32:52.300Z,10.20
2022-12-19T02:35:53.550Z,10.20
2022-12-19T02:38:58.660Z,10.20
2022-12-19T02:41:43.381Z,10.20
2022-12-19T02:44:29.235Z,10.20
2022-12-19T02:46:59.146Z,10.10
2022-12-19T02:49:30.912Z,10.20
2022-12-19T02:52:13.187Z,10.20
2022-12-19T02:54:42.340Z,10.20
2022-12-19T02:57:25.081Z,10.20
2022-12-19T03:00:13.549Z,10.20
2022-12-19T03:03:08.478Z,10.30
2022-12-19T03:05:41.766Z,10.30
2022-12-19T03:08:33.118Z,10.30
2022-12-19T03:11:05.658Z,10.40
2022-12-19T03:13:36.896Z,10.30
2022-12-19T03:16:08.102Z,10.30
2022-12-19T03:18:35.530Z,10.40
2022-12-19T03:21:05.967Z,10.30
2022-12-19T03:23:34.003Z,10.40
2022-12-19T03:26:09.902Z,10.40
2022-12-19T03:28:49.301Z,10.40
2022-12-19T03:31:19.741Z,10.40
2022-12-19T03:33:50.834Z,10.30
2022-12-19T03:36:24.635Z,10.30
2022-12-19T03:38:52.556Z,10.30
2022-12-19T03:41:42.407Z,10.30
2022-12-19T03:44:12.240Z,10.30
2022-12-19T03:46:51.478Z,10.30
2022-12-19T03:49:18.899Z,10.30
2022-12-19T03:51:59.341Z,10.30
2022-12-19T03:54:39.925Z,10.30
2022-12-19T03:57:13.965Z,10.30
2022-12-19T03:59:44.813Z,10.30
2022-12-19T04:02:15.193Z,10.30
2022-12-19T04:04:51.792Z,10.30
2022-12-19T04:07:19.528Z,10.30
2022-12-19T04:09:47.659Z,10.30
2022-12-19T04:12:32.064Z,10.30
2022-12-19T04:14:59.398Z,10.30
2022-12-19T04:17:47.027Z,10.30
2022-12-19T04:20:22.585Z,10.30
2022-12-19T04:22:52.467Z,10.30
2022-12-19T04:28:34.008Z,10.30
2022-12-19T04:31:02.292Z,10.20
2022-12-19T04:33:29.570Z,10.20
2022-12-19T04:35:56.887Z,10.30
2022-12-19T04:38:24.117Z,10.20
2022-12-19T04:40:51.356Z,10.30
2022-12-19T04:43:18.591Z,10.30
2022-12-19T04:45:46.057Z,10.30
2022-12-19T04:48:13.219Z,10.30
2022-12-19T04:50:40.532Z,10.20
2022-12-19T04:53:07.827Z,10.20
2022-12-19T04:55:35.077Z,10.20
2022-12-19T04:58:03.757Z,10.20
2022-12-19T05:00:30.987Z,10.30
2022-12-19T05:02:58.349Z,10.30
2022-12-19T05:08:07.868Z,10.30
2022-12-19T05:10:36.891Z,10.30
2022-12-19T05:13:04.215Z,10.20
2022-12-19T05:15:31.432Z,10.30
2022-12-19T05:17:58.707Z,10.30
2022-12-19T05:20:25.897Z,10.30
2022-12-19T05:22:53.271Z,10.30
2022-12-19T05:25:20.448Z,10.30
2022-12-19T05:27:47.646Z,10.30
2022-12-19T05:30:14.787Z,10.30
2022-12-19T05:32:42.032Z,10.30
2022-12-19T05:35:09.295Z,10.30
2022-12-19T05:37:36.512Z,10.30
2022-12-19T05:40:03.988Z,10.30
2022-12-19T05:42:31.179Z,10.30
2022-12-19T05:47:39.376Z,10.30
2022-12-19T05:50:06.979Z,10.40
2022-12-19T05:52:34.190Z,10.30
2022-12-19T05:55:01.455Z,10.30
2022-12-19T05:57:28.722Z,10.30
2022-12-19T05:59:55.886Z,10.30
2022-12-19T06:02:23.519Z,10.30
2022-12-19T06:04:50.762Z,10.40
2022-12-19T06:07:21.060Z,10.30
2022-12-19T06:09:48.702Z,10.30
2022-12-19T06:12:15.908Z,10.30
2022-12-19T06:14:43.091Z,10.40
2022-12-19T06:17:10.371Z,10.30
2022-12-19T06:19:37.491Z,10.40
2022-12-19T06:22:04.751Z,10.40
2022-12-19T06:24:31.943Z,10.40
2022-12-19T06:26:59.170Z,10.50
2022-12-19T06:29:26.320Z,10.50
2022-12-19T06:31:53.579Z,10.50
2022-12-19T06:34:39.889Z,10.50
2022-12-19T06:37:08.569Z,10.50
2022-12-19T06:39:35.978Z,10.50
2022-12-19T06:42:21.923Z,10.40
2022-12-19T06:44:50.123Z,10.50
2022-12-19T06:47:17.606Z,10.50
2022-12-19T06:49:44.823Z,10.40
2022-12-19T06:52:11.999Z,10.50
2022-12-19T06:54:39.372Z,10.50
2022-12-19T06:57:06.829Z,10.50
2022-12-19T06:59:34.048Z,10.50
2022-12-19T07:02:12.810Z,10.60
2022-12-19T07:04:52.591Z,10.60
2022-12-19T07:07:20.087Z,10.60
2022-12-19T07:09:47.937Z,10.70
2022-12-19T07:12:15.188Z,10.70
2022-12-19T07:14:42.920Z,10.70
2022-12-19T07:17:10.307Z,10.70
2022-12-19T07:19:38.307Z,10.70
2022-12-19T07:22:06.870Z,10.70
2022-12-19T07:24:36.042Z,10.70
2022-12-19T07:27:03.907Z,10.60
2022-12-19T07:29:31.147Z,10.70
2022-12-19T07:31:58.415Z,10.70
2022-12-19T07:34:25.637Z,10.70
2022-12-19T07:36:52.873Z,10.70
2022-12-19T07:39:20.064Z,10.60
2022-12-19T07:41:47.326Z,10.60
2022-12-19T07:44:16.627Z,10.70
2022-12-19T07:46:44.825Z,10.70
2022-12-19T07:49:12.131Z,10.70
2022-12-19T07:54:20.386Z,10.80
2022-12-19T07:56:47.658Z,10.80
2022-12-19T07:59:15.176Z,10.80
2022-12-19T08:01:42.507Z,10.80
2022-12-19T08:04:09.806Z,10.90
2022-12-19T08:06:41.025Z,10.90
2022-12-19T08:09:09.012Z,10.90
2022-12-19T08:11:36.216Z,10.90
2022-12-19T08:14:03.555Z,10.90
2022-12-19T08:16:31.339Z,10.90
2022-12-19T08:18:58.686Z,10.90
2022-12-19T08:21:25.948Z,11.00
2022-12-19T08:23:53.355Z,10.90
2022-12-19T08:26:25.538Z,10.90
2022-12-19T08:28:54.893Z,10.90
2022-12-19T08:31:25.175Z,10.90
2022-12-19T08:33:57.383Z,11.00
2022-12-19T08:36:24.666Z,11.00
2022-12-19T08:38:52.863Z,11.00
2022-12-19T08:41:20.268Z,11.00
2022-12-19T08:43:52.878Z,11.00
2022-12-19T08:46:21.389Z,11.00
2022-12-19T08:48:48.757Z,11.10
2022-12-19T08:51:17.023Z,11.10
2022-12-19T08:53:46.493Z,11.20
2022-12-19T08:56:21.795Z,11.30
2022-12-19T08:58:51.693Z,11.40
2022-12-19T09:01:21.028Z,11.30
2022-12-19T09:04:04.580Z,11.40
2022-12-19T09:06:36.166Z,11.40
2022-12-19T09:09:04.904Z,11.50
2022-12-19T09:11:32.334Z,11.60
2022-12-19T09:13:59.693Z,11.60
2022-12-19T09:16:28.665Z,11.70
2022-12-19T09:18:58.967Z,11.70
2022-12-19T09:21:29.454Z,11.80
2022-12-19T09:24:05.214Z,11.90
2022-12-19T09:26:35.111Z,11.90
2022-12-19T09:29:03.766Z,11.90
2022-12-19T09:31:38.285Z,12.00
2022-12-19T09:34:05.615Z,12.00
2022-12-19T09:36:32.950Z,12.00
2022-12-19T09:39:00.400Z,12.10
2022-12-19T09:41:42.566Z,12.10
2022-12-19T09:44:28.267Z,12.20
2022-12-19T09:47:02.538Z,12.30
2022-12-19T09:49:41.667Z,12.30
2022-12-19T09:52:26.900Z,12.30
2022-12-19T09:55:32.840Z,12.40
2022-12-19T09:58:26.329Z,12.40
2022-12-19T10:00:59.623Z,12.50
2022-12-19T10:03:43.780Z,12.60
2022-12-19T10:07:12.935Z,12.60
2022-12-19T10:10:46.372Z,12.60
2022-12-19T10:12:44.973Z,12.70
2022-12-19T10:15:10.599Z,12.70
2022-12-19T10:17:55.763Z,12.80
2022-12-19T10:20:34.367Z,12.70
2022-12-19T10:23:10.467Z,12.80
2022-12-19T10:26:02.920Z,12.90
2022-12-19T10:28:30.130Z,12.90
2022-12-19T10:31:22.077Z,12.90
2022-12-19T10:34:01.666Z,12.90
2022-12-19T10:37:11.967Z,13.00
2022-12-19T10:40:27.273Z,13.00
2022-12-19T10:43:15.430Z,13.00
2022-12-19T10:46:00.167Z,13.10
2022-12-19T10:48:31.108Z,13.10
2022-12-19T10:51:00.663Z,13.20
2022-12-19T10:53:34.269Z,13.30
2022-12-19T10:56:12.181Z,13.30
2022-12-19T10:58:43.469Z,13.30
2022-12-19T11:01:40.508Z,13.30
2022-12-19T11:04:28.665Z,13.30
2022-12-19T11:07:02.836Z,13.40
2022-12-19T11:16:47.295Z,13.50
2022-12-19T11:19:38.993Z,13.60
2022-12-19T11:28:33.469Z,13.90
2022-12-19T11:29:26.685Z,14.00
2022-12-19T11:29:42.227Z,14.10
2022-12-19T11:30:39.348Z,14.10
2022-12-19T11:32:41.466Z,14.10
2022-12-19T11:35:24.890Z,14.00
2022-12-19T11:37:59.559Z,13.90
2022-12-19T11:40:51.398Z,13.90
2022-12-19T11:46:33.371Z,13.90
2022-12-19T11:49:40.310Z,13.90
2022-12-19T11:55:33.089Z,13.90
2022-12-19T11:58:00.769Z,13.90
2022-12-19T12:00:29.420Z,13.90
2022-12-19T12:03:15.565Z,13.90
2022-12-19T12:05:47.835Z,14.00
2022-12-19T12:11:41.453Z,14.00
2022-12-19T12:20:34.883Z,14.00
2022-12-19T12:24:55.187Z,14.10
2022-12-19T12:30:40.788Z,14.20
2022-12-19T12:31:16.966Z,14.30
2022-12-19T12:31:39.616Z,14.60
2022-12-19T12:31:41.322Z,14.30
2022-12-19T12:31:51.390Z,14.50
2022-12-19T12:35:19.981Z,14.60
2022-12-19T12:39:25.411Z,14.70
2022-12-19T12:44:55.162Z,14.90
2022-12-19T12:47:24.842Z,15.00
2022-12-19T12:50:15.112Z,15.00
2022-12-19T12:52:48.066Z,15.00
2022-12-19T12:55:41.510Z,15.00
2022-12-19T12:58:37.560Z,15.00
2022-12-19T13:01:20.144Z,15.20
2022-12-19T13:03:56.470Z,15.30
2022-12-19T13:06:32.999Z,15.40
2022-12-19T13:09:09.139Z,15.40
2022-12-19T13:11:59.845Z,15.40
2022-12-19T13:14:36.125Z,15.40
2022-12-19T13:17:04.556Z,15.40
2022-12-19T13:19:36.678Z,15.40
2022-12-19T13:22:09.899Z,15.40
2022-12-19T13:24:50.183Z,15.40
2022-12-19T13:27:20.363Z,15.30
2022-12-19T13:30:08.208Z,15.30
2022-12-19T13:36:32.234Z,15.20
2022-12-19T13:40:01.313Z,15.20
2022-12-19T13:41:45.510Z,15.20
2022-12-19T13:44:13.057Z,15.10
2022-12-19T13:46:43.687Z,15.10
2022-12-19T13:49:17.962Z,15.10
2022-12-19T13:51:53.560Z,15.10
2022-12-19T13:54:26.628Z,15.00
2022-12-19T13:56:55.181Z,15.00
2022-12-19T13:59:25.996Z,15.00
2022-12-19T14:01:54.769Z,15.00
2022-12-19T14:04:32.042Z,15.00
2022-12-19T14:07:01.677Z,15.00
2022-12-19T14:11:33.887Z,15.00
2022-12-19T14:13:42.019Z,15.00
2022-12-19T14:15:36.660Z,14.90
2022-12-19T14:18:43.433Z,14.90
2022-12-19T14:22:04.467Z,14.80
2022-12-19T14:24:29.486Z,14.80
2022-12-19T14:28:21.198Z,14.80
2022-12-19T14:30:31.006Z,14.80
2022-12-19T14:36:08.614Z,14.80
2022-12-19T14:39:25.840Z,14.80
2022-12-19T14:42:00.539Z,14.70
2022-12-19T14:52:08.449Z,14.70
2022-12-19T14:54:05.398Z,14.70
2022-12-19T14:54:29.346Z,14.60
2022-12-19T14:54:42.092Z,14.60
2022-12-19T14:56:40.671Z,14.60
2022-12-19T14:59:41.639Z,14.60
2022-12-19T15:05:07.545Z,14.60
2022-12-19T15:07:35.592Z,14.70
2022-12-19T15:11:05.181Z,14.60
2022-12-19T15:16:26.050Z,14.60
2022-12-19T15:19:01.509Z,14.70
2022-12-19T15:21:30.993Z,14.70
2022-12-19T15:23:58.216Z,14.60
2022-12-19T15:26:32.892Z,14.60
2022-12-19T15:29:00.598Z,14.60
2022-12-19T15:31:43.298Z,14.60
2022-12-19T15:36:58.539Z,14.60
2022-12-19T15:39:29.596Z,14.60
2022-12-19T15:41:59.476Z,14.60
2022-12-19T15:44:36.981Z,14.60
2022-12-19T15:47:34.442Z,14.60
2022-12-19T15:50:05.462Z,14.50
2022-12-19T15:52:33.108Z,14.50
2022-12-19T15:55:00.353Z,14.40
2022-12-19T15:57:36.675Z,14.50
2022-12-19T16:00:21.151Z,14.50
2022-12-19T16:05:35.624Z,14.50
2022-12-19T16:08:02.837Z,14.50
2022-12-19T16:10:30.112Z,14.50
2022-12-19T16:12:58.520Z,14.50
2022-12-19T16:15:29.650Z,14.50
2022-12-19T16:17:58.325Z,14.50
2022-12-19T16:20:31.251Z,14.40
2022-12-19T16:22:58.468Z,14.40
2022-12-19T16:25:35.749Z,14.40
2022-12-19T16:28:05.699Z,14.40
2022-12-19T16:30:34.955Z,14.40
2022-12-19T16:33:02.310Z,14.30
2022-12-19T16:38:18.676Z,14.40
2022-12-19T16:46:22.270Z,14.30
2022-12-19T16:48:50.116Z,14.30
2022-12-19T16:51:20.263Z,14.30
2022-12-19T16:53:49.216Z,14.30
2022-12-19T16:56:45.080Z,14.40
2022-12-19T16:59:20.945Z,14.40
2022-12-19T17:01:49.072Z,14.30
2022-12-19T17:04:19.830Z,14.30
2022-12-19T17:06:47.144Z,14.30
2022-12-19T17:09:20.251Z,14.30
2022-12-19T17:12:01.484Z,14.30
2022-12-19T17:14:32.234Z,14.40
2022-12-19T17:17:00.274Z,14.40
2022-12-19T17:19:37.924Z,14.30
2022-12-19T17:22:15.296Z,14.30
2022-12-19T17:24:43.667Z,14.30
2022-12-19T17:27:10.891Z,14.30
2022-12-19T17:29:38.308Z,14.20
2022-12-19T17:32:09.117Z,14.20
2022-12-19T17:34:36.809Z,14.20
2022-12-19T17:37:05.353Z,14.20
2022-12-19T17:39:34.741Z,14.20
2022-12-19T17:42:15.600Z,14.20
2022-12-19T17:44:42.987Z,14.20
2022-12-19T17:47:15.604Z,14.20
2022-12-19T17:49:43.684Z,14.10
2022-12-19T17:52:19.651Z,14.10
2022-12-19T17:54:47.242Z,14.10
2022-12-19T17:59:59.528Z,14.10
2022-12-19T18:02:27.592Z,14.20
2022-12-19T18:04:55.047Z,14.20
2022-12-19T18:07:22.227Z,14.20
2022-12-19T18:09:49.550Z,14.20
2022-12-19T18:14:57.729Z,14.30
2022-12-19T18:17:26.092Z,14.30
2022-12-19T18:19:53.422Z,14.30
2022-12-19T18:22:20.652Z,14.30
2022-12-19T18:24:47.899Z,14.30
2022-12-19T18:27:15.046Z,14.30
2022-12-19T18:29:42.271Z,14.40
2022-12-19T18:32:19.058Z,14.30
2022-12-19T18:34:46.329Z,14.30
2022-12-19T18:39:56.781Z,14.20
2022-12-19T18:42:23.947Z,14.30
2022-12-19T18:44:51.127Z,14.20
2022-12-19T18:47:23.281Z,14.30
2022-12-19T18:49:52.456Z,14.30
2022-12-19T18:52:19.620Z,14.20
2022-12-19T18:54:46.857Z,14.20
2022-12-19T18:57:14.722Z,14.20
2022-12-19T18:59:42.008Z,14.20
2022-12-19T19:02:28.463Z,14.20
2022-12-19T19:04:56.217Z,14.20
2022-12-19T19:07:23.389Z,14.20
2022-12-19T19:09:50.652Z,14.10
2022-12-19T19:12:36.265Z,14.10
2022-12-19T19:15:03.511Z,14.10
2022-12-19T19:17:31.978Z,14.10
2022-12-19T19:19:59.325Z,14.10
2022-12-19T19:22:26.580Z,14.10
2022-12-19T19:24:53.740Z,14.10
2022-12-19T19:27:20.961Z,14.10
2022-12-19T19:29:48.168Z,14.20
2022-12-19T19:32:15.338Z,14.20
2022-12-19T19:34:43.132Z,14.20
2022-12-19T19:37:13.705Z,14.10
2022-12-19T19:39:41.973Z,14.20
2022-12-19T19:42:09.167Z,14.10
2022-12-19T19:44:36.487Z,14.10
2022-12-19T19:47:03.707Z,14.10
2022-12-19T19:49:30.932Z,14.10
2022-12-19T19:52:02.484Z,14.00
2022-12-19T19:54:31.828Z,14.00
2022-12-19T19:59:39.979Z,14.00
2022-12-19T20:02:08.744Z,14.00
2022-12-19T20:04:36.557Z,13.90
2022-12-19T20:07:04.021Z,13.90
2022-12-19T20:09:31.257Z,13.80
2022-12-19T20:11:58.971Z,13.90
2022-12-19T20:17:07.778Z,13.80
2022-12-19T20:19:34.939Z,13.90
2022-12-19T20:22:02.239Z,13.90
2022-12-19T20:24:29.644Z,13.90
2022-12-19T20:26:58.109Z,13.90
2022-12-19T20:29:26.238Z,14.00
2022-12-19T20:31:53.571Z,14.00
2022-12-19T20:34:20.689Z,14.00
2022-12-19T20:36:48.005Z,14.00
2022-12-19T20:39:16.743Z,14.00
2022-12-19T20:41:43.945Z,14.00
2022-12-19T20:44:11.117Z,14.00
2022-12-19T20:46:38.422Z,14.00
2022-12-19T21:40:01.789Z,13.90
2022-12-19T21:42:29.435Z,13.90
2022-12-19T21:44:56.718Z,13.80
2022-12-19T21:47:24.063Z,13.90
2022-12-19T21:49:51.277Z,13.80
2022-12-19T21:52:18.578Z,13.90
2022-12-19T21:54:45.832Z,13.90
2022-12-19T21:57:13.132Z,13.90
2022-12-19T21:59:40.330Z,13.90
2022-12-19T22:02:11.057Z,13.90
2022-12-19T22:07:19.590Z,13.90
2022-12-19T22:09:46.813Z,13.80
2022-12-19T22:12:14.265Z,13.90
2022-12-19T22:14:41.528Z,13.80
2022-12-19T22:17:08.844Z,13.80
2022-12-19T22:19:36.179Z,13.80
2022-12-19T22:22:03.817Z,13.80
2022-12-19T22:24:31.199Z,13.80
2022-12-19T22:26:58.720Z,13.80
2022-12-19T22:29:26.025Z,13.80
2022-12-19T22:31:53.663Z,13.80
2022-12-19T22:34:22.004Z,13.80
2022-12-19T22:36:49.531Z,13.70
2022-12-19T22:39:18.826Z,13.80
2022-12-19T22:41:46.163Z,13.80
2022-12-19T22:44:19.033Z,13.80
2022-12-19T22:46:46.486Z,13.70
2022-12-19T22:49:14.188Z,13.70
2022-12-19T22:51:42.024Z,13.70
2022-12-19T22:54:10.658Z,13.70
2022-12-19T22:56:39.094Z,13.70
2022-12-19T22:59:08.548Z,13.70
2022-12-19T23:01:38.935Z,13.70
2022-12-19T23:04:09.093Z,13.70
2022-12-19T23:06:38.117Z,13.70
2022-12-19T23:09:07.291Z,13.70
2022-12-19T23:11:37.762Z,13.60
2022-12-19T23:14:07.066Z,13.60
2022-12-19T23:16:34.759Z,13.60
2022-12-19T23:19:02.232Z,13.60
2022-12-19T23:21:29.739Z,13.60
2022-12-19T23:23:57.176Z,13.60
2022-12-19T23:26:27.814Z,13.60
2022-12-19T23:29:00.782Z,13.60
2022-12-19T23:31:28.957Z,13.60
2022-12-19T23:33:57.186Z,13.60
2022-12-19T23:37:00.441Z,13.50
2022-12-19T23:39:13.400Z,13.50
2022-12-19T23:41:41.090Z,13.50
2022-12-19T23:44:09.703Z,13.50
2022-12-19T23:46:37.621Z,13.50
2022-12-19T23:49:05.151Z,13.50
2022-12-19T23:51:32.682Z,13.50
2022-12-19T23:54:00.082Z,13.50
2022-12-19T23:56:29.895Z,13.50
2022-12-19T23:58:58.405Z,13.50
